Time;durP1;ratioP1;P1;durP2;ratioP2;P2;SDS_P1;SDS_P2;PMS_P1;PMS_P2;Temp;Humidity;BMP_temperature;BMP_pressure;BME280_temperature;BME280_humidity;BME280_pressure;Samples;Min_cycle;Max_cycle;Signal;HPM_P1;HPM_P2
2021/06/15 00:00:18;;;;;;;2.25;2.08;;;11.70;95.60;;;;;;5032428;28;20072;-87
2021/06/15 00:02:46;;;;;;;5.30;2.08;;;11.70;95.40;;;;;;4998356;28;20055;-88
2021/06/15 00:05:15;;;;;;;8.18;2.38;;;11.70;95.50;;;;;;5013907;28;20045;-87
2021/06/15 00:07:44;;;;;;;2.90;2.35;;;11.70;96.30;;;;;;5032616;28;20398;-87
2021/06/15 00:10:19;;;;;;;6.07;3.60;;;11.60;96.50;;;;;;5032127;28;20050;-87
2021/06/15 00:12:47;;;;;;;2.50;2.17;;;11.60;96.60;;;;;;5014501;28;20053;-88
2021/06/15 00:15:17;;;;;;;3.00;2.25;;;11.50;96.50;;;;;;4999584;28;20053;-87
2021/06/15 00:17:46;;;;;;;2.25;2.05;;;11.50;96.40;;;;;;4983059;28;20046;-86
2021/06/15 00:20:16;;;;;;;3.00;2.75;;;11.40;96.90;;;;;;4998963;28;20402;-87
2021/06/15 00:22:44;;;;;;;3.05;2.42;;;11.40;97.00;;;;;;4998894;28;20041;-87
2021/06/15 00:25:14;;;;;;;4.18;3.85;;;11.40;96.70;;;;;;5047946;28;20037;-87
2021/06/15 00:27:43;;;;;;;6.10;2.85;;;11.50;96.50;;;;;;5053248;28;20052;-87
2021/06/15 00:30:12;;;;;;;3.33;3.13;;;11.60;97.10;;;;;;5051988;28;20052;-87
2021/06/15 00:32:40;;;;;;;5.50;4.22;;;11.50;97.90;;;;;;5052632;28;20060;-84
2021/06/15 00:35:08;;;;;;;3.38;2.38;;;11.30;97.20;;;;;;5051666;28;20053;-84
2021/06/15 00:37:36;;;;;;;3.92;2.38;;;11.30;97.30;;;;;;5037492;28;20053;-84
2021/06/15 00:40:05;;;;;;;2.50;2.30;;;11.30;97.60;;;;;;5018257;28;20438;-86
2021/06/15 00:42:34;;;;;;;9.73;3.17;;;11.30;97.60;;;;;;5030616;28;20049;-87
2021/06/15 00:45:05;;;;;;;2.88;2.15;;;11.40;97.20;;;;;;5031328;28;20546;-86
2021/06/15 00:47:34;;;;;;;3.15;2.45;;;11.40;96.90;;;;;;4999047;28;20053;-87
2021/06/15 00:50:03;;;;;;;2.58;2.20;;;11.50;96.60;;;;;;4980941;28;20057;-86
2021/06/15 00:52:32;;;;;;;3.00;2.78;;;11.50;96.60;;;;;;4997587;28;20060;-87
2021/06/15 00:55:00;;;;;;;6.20;3.92;;;11.50;97.60;;;;;;5031012;28;20664;-87
2021/06/15 00:57:31;;;;;;;1.88;1.70;;;11.40;97.40;;;;;;5014790;28;20046;-86
2021/06/15 00:59:59;;;;;;;3.70;2.97;;;11.30;97.60;;;;;;5014474;28;20056;-86
2021/06/15 01:02:31;;;;;;;8.55;3.85;;;11.20;97.70;;;;;;5031361;28;20045;-86
2021/06/15 01:05:01;;;;;;;5.63;3.35;;;11.20;98.10;;;;;;4997228;28;20052;-86
2021/06/15 01:08:00;;;;;;;2.75;2.55;;;11.10;98.50;;;;;;5032279;28;20406;-87
2021/06/15 01:10:44;;;;;;;2.92;2.53;;;11.00;98.90;;;;;;5028471;28;20053;-86
2021/06/15 01:13:27;;;;;;;3.85;2.90;;;11.00;99.20;;;;;;5031068;28;20049;-86
2021/06/15 01:16:13;;;;;;;6.43;3.67;;;10.90;99.30;;;;;;4998314;28;20049;-86
2021/06/15 01:18:48;;;;;;;2.55;2.22;;;10.90;99.00;;;;;;4997245;28;20042;-87
2021/06/15 01:21:19;;;;;;;5.38;3.30;;;11.00;99.20;;;;;;5009247;28;20052;-87
2021/06/15 01:23:50;;;;;;;3.65;3.35;;;10.90;99.70;;;;;;5015894;28;20069;-86
2021/06/15 01:26:41;;;;;;;5.70;4.05;;;10.90;99.70;;;;;;5014046;28;20038;-88
2021/06/15 01:29:19;;;;;;;4.05;2.75;;;10.90;99.90;;;;;;4997527;28;20048;-87
2021/06/15 01:31:51;;;;;;;3.20;2.55;;;10.90;99.90;;;;;;5029479;28;20049;-87
2021/06/15 01:34:32;;;;;;;3.17;2.85;;;10.90;99.80;;;;;;5012860;28;20471;-86
2021/06/15 01:37:19;;;;;;;6.38;3.22;;;10.90;99.70;;;;;;5013322;28;20041;-87
2021/06/15 01:40:03;;;;;;;3.30;2.70;;;10.90;99.70;;;;;;4997863;28;20057;-87
2021/06/15 01:42:51;;;;;;;5.63;3.25;;;10.90;99.70;;;;;;5013894;28;20494;-86
2021/06/15 01:45:26;;;;;;;4.50;2.85;;;10.90;99.80;;;;;;4996960;28;20041;-86
2021/06/15 01:48:20;;;;;;;4.22;2.72;;;10.90;99.80;;;;;;4997930;28;20053;-86
2021/06/15 01:50:50;;;;;;;2.97;2.72;;;11.00;99.60;;;;;;5011489;28;20052;-86
2021/06/15 01:53:21;;;;;;;5.60;3.83;;;11.10;99.30;;;;;;5031238;28;20037;-86
2021/06/15 01:55:55;;;;;;;2.42;2.20;;;11.10;99.20;;;;;;4989865;28;20045;-86
2021/06/15 01:58:29;;;;;;;4.13;3.70;;;11.10;99.30;;;;;;4997228;28;20042;-86
2021/06/15 02:01:02;;;;;;;3.00;2.70;;;11.00;99.80;;;;;;5013022;28;20402;-85
2021/06/15 02:03:33;;;;;;;4.32;2.63;;;11.00;99.80;;;;;;5013517;28;20054;-86
2021/06/15 02:06:05;;;;;;;3.85;3.55;;;10.90;99.90;;;;;;5012191;28;20044;-86
2021/06/15 02:08:37;;;;;;;3.25;3.00;;;10.70;99.90;;;;;;4980916;28;20050;-86
2021/06/15 02:11:17;;;;;;;6.57;4.25;;;10.40;99.90;;;;;;5013164;28;20052;-86
2021/06/15 02:14:25;;;;;;;5.15;3.05;;;10.30;99.90;;;;;;5000416;28;20489;-86
2021/06/15 02:17:08;;;;;;;4.50;3.05;;;10.30;99.90;;;;;;5013015;28;20514;-86
2021/06/15 02:19:59;;;;;;;3.75;2.80;;;10.40;99.90;;;;;;5018871;28;20759;-87
2021/06/15 02:22:30;;;;;;;12.13;4.38;;;10.40;99.90;;;;;;5012579;28;20045;-86
2021/06/15 02:25:00;;;;;;;8.32;3.28;;;10.30;99.90;;;;;;5012756;28;20407;-86
2021/06/15 02:27:30;;;;;;;5.03;3.47;;;10.30;99.90;;;;;;5010377;28;20057;-86
2021/06/15 02:30:00;;;;;;;6.82;3.88;;;10.40;99.90;;;;;;5028773;28;20049;-86
2021/06/15 02:32:37;;;;;;;3.67;3.40;;;10.40;99.90;;;;;;5012369;28;20072;-86
2021/06/15 02:35:08;;;;;;;3.35;3.00;;;10.50;99.90;;;;;;4996404;28;20053;-86
2021/06/15 02:37:45;;;;;;;3.13;2.92;;;10.50;99.90;;;;;;4990950;28;20491;-86
2021/06/15 02:40:17;;;;;;;6.65;3.40;;;10.40;99.90;;;;;;5009589;28;20058;-86
2021/06/15 02:42:48;;;;;;;6.40;4.20;;;10.20;99.90;;;;;;4989532;28;20423;-87
2021/06/15 02:45:23;;;;;;;3.50;3.20;;;10.20;99.90;;;;;;5005030;28;20053;-86
2021/06/15 02:47:53;;;;;;;5.82;3.15;;;10.10;99.90;;;;;;5009686;28;20058;-86
2021/06/15 02:50:24;;;;;;;6.72;3.40;;;10.20;99.90;;;;;;5008448;28;20042;-86
2021/06/15 02:53:12;;;;;;;4.32;3.42;;;10.30;99.90;;;;;;4993313;28;20510;-87
2021/06/15 02:55:50;;;;;;;5.25;3.88;;;10.30;99.90;;;;;;4993231;28;20057;-87
2021/06/15 02:58:22;;;;;;;3.90;3.55;;;10.40;99.90;;;;;;4992439;28;20042;-87
2021/06/15 03:01:14;;;;;;;4.20;2.53;;;10.40;99.90;;;;;;5008890;28;20049;-88
2021/06/15 03:04:47;;;;;;;3.05;2.75;;;10.50;99.90;;;;;;4994837;28;20050;-87
2021/06/15 03:07:49;;;;;;;2.88;2.67;;;10.30;99.90;;;;;;4995625;28;20053;-88
2021/06/15 03:10:31;;;;;;;;;;;10.10;99.90;;;;;;4989748;28;20034;-88
2021/06/15 03:13:32;;;;;;;5.07;3.17;;;10.00;99.90;;;;;;5008618;28;19929;-88
2021/06/15 03:16:03;;;;;;;4.55;3.90;;;10.00;99.90;;;;;;5010707;28;20050;-87
2021/06/15 03:19:08;;;;;;;3.75;3.13;;;10.00;99.90;;;;;;5009251;28;20044;-88
2021/06/15 03:21:47;;;;;;;4.35;3.28;;;10.00;99.90;;;;;;5028186;28;20049;-87
2021/06/15 03:24:22;;;;;;;6.03;3.55;;;10.00;99.90;;;;;;5030382;28;20061;-87
2021/06/15 03:27:08;;;;;;;3.90;2.95;;;9.90;99.90;;;;;;5029797;28;20122;-90
2021/06/15 03:29:43;;;;;;;8.23;3.63;;;9.90;99.90;;;;;;5004803;28;20037;-90
2021/06/15 03:32:16;;;;;;;4.07;3.22;;;9.90;99.90;;;;;;5018519;28;20053;-90
2021/06/15 03:34:48;;;;;;;4.90;3.20;;;9.90;99.90;;;;;;5000944;28;20045;-90
2021/06/15 03:37:24;;;;;;;5.35;4.80;;;10.00;99.90;;;;;;5012298;28;20045;-90
2021/06/15 03:39:58;;;;;;;5.25;3.90;;;10.00;99.90;;;;;;5038082;28;20056;-91
2021/06/15 03:42:37;;;;;;;6.60;4.75;;;10.00;99.90;;;;;;5008802;28;20045;-91
2021/06/15 03:45:07;;;;;;;6.15;3.67;;;10.10;99.90;;;;;;5025362;28;20049;-91
2021/06/15 03:47:39;;;;;;;5.32;3.97;;;10.00;99.90;;;;;;5024146;28;20058;-90
2021/06/15 03:50:10;;;;;;;3.65;3.35;;;10.00;99.90;;;;;;5038348;28;20041;-90
2021/06/15 03:52:39;;;;;;;3.90;3.42;;;10.00;99.90;;;;;;5041094;28;20057;-90
2021/06/15 03:55:11;;;;;;;4.38;3.00;;;10.00;99.90;;;;;;5014381;28;20061;-90
2021/06/15 03:57:42;;;;;;;5.70;3.70;;;10.00;99.90;;;;;;4998884;28;20034;-90
2021/06/15 04:00:17;;;;;;;4.32;3.85;;;10.10;99.90;;;;;;5033447;28;20061;-89
2021/06/15 04:02:54;;;;;;;3.95;3.42;;;10.10;99.90;;;;;;5018109;28;20045;-90
2021/06/15 04:05:28;;;;;;;5.20;3.40;;;10.10;99.90;;;;;;5020048;28;20057;-89
2021/06/15 04:08:00;;;;;;;5.15;3.33;;;10.20;99.90;;;;;;5020022;28;20053;-90
2021/06/15 04:10:29;;;;;;;5.53;4.53;;;10.20;99.90;;;;;;5019815;28;20498;-90
2021/06/15 04:13:01;;;;;;;5.22;3.30;;;10.30;99.90;;;;;;5015871;28;20052;-90
2021/06/15 04:15:32;;;;;;;5.18;4.00;;;10.40;99.90;;;;;;5035766;28;20060;-90
2021/06/15 04:18:02;;;;;;;6.38;3.15;;;10.50;99.90;;;;;;5017421;28;20041;-89
2021/06/15 04:20:35;;;;;;;4.90;3.00;;;10.70;99.90;;;;;;5018582;28;20049;-90
2021/06/15 04:23:07;;;;;;;4.45;3.83;;;10.80;99.90;;;;;;5003344;28;20061;-90
2021/06/15 04:25:42;;;;;;;10.52;3.65;;;10.80;99.90;;;;;;4985478;28;20053;-90
2021/06/15 04:28:11;;;;;;;4.97;3.10;;;10.80;99.90;;;;;;4996137;28;20057;-91
2021/06/15 04:30:40;;;;;;;4.22;3.60;;;10.90;99.90;;;;;;4998446;28;20042;-90
2021/06/15 04:33:11;;;;;;;3.45;2.80;;;11.00;99.90;;;;;;4983418;28;20081;-90
2021/06/15 04:35:46;;;;;;;2.40;2.20;;;11.20;99.90;;;;;;4998181;28;20050;-90
2021/06/15 04:38:33;;;;;;;3.45;3.13;;;11.30;99.90;;;;;;4976719;28;20049;-88
2021/06/15 04:41:08;;;;;;;4.40;2.90;;;11.40;99.90;;;;;;5013052;28;20050;-88
2021/06/15 04:43:52;;;;;;;2.88;2.60;;;11.50;99.90;;;;;;5012949;28;20478;-82
2021/06/15 04:46:26;;;;;;;10.00;3.58;;;11.70;99.90;;;;;;5012125;28;20054;-80
2021/06/15 04:49:17;;;;;;;3.67;3.10;;;11.90;99.90;;;;;;5010853;28;20050;-80
2021/06/15 04:51:48;;;;;;;3.47;3.17;;;12.20;99.90;;;;;;4930946;29;20048;-81
2021/06/15 04:54:20;;;;;;;4.28;3.70;;;12.40;99.90;;;;;;4987398;28;20053;-81
2021/06/15 04:56:57;;;;;;;3.55;3.08;;;12.70;99.90;;;;;;5011521;28;20042;-81
2021/06/15 04:59:34;;;;;;;3.22;2.92;;;12.80;99.90;;;;;;4994646;28;20506;-80
2021/06/15 05:02:04;;;;;;;2.67;2.42;;;13.10;99.90;;;;;;5011303;28;20049;-80
2021/06/15 05:04:33;;;;;;;10.23;3.75;;;13.30;99.90;;;;;;5011702;28;20050;-80
2021/06/15 05:07:02;;;;;;;3.58;3.28;;;13.50;99.90;;;;;;5011688;28;20054;-80
2021/06/15 05:09:33;;;;;;;5.60;3.78;;;13.70;99.90;;;;;;5011535;28;20057;-81
2021/06/15 05:12:02;;;;;;;4.53;3.40;;;13.90;99.90;;;;;;4978231;28;20057;-81
2021/06/15 05:14:36;;;;;;;5.75;3.28;;;14.00;99.90;;;;;;5010698;28;20045;-78
2021/06/15 05:17:10;;;;;;;2.42;2.22;;;14.10;99.90;;;;;;4984581;28;20042;-83
2021/06/15 05:19:40;;;;;;;3.10;2.90;;;14.20;99.90;;;;;;4994376;28;20042;-81
2021/06/15 05:22:45;;;;;;;3.95;3.53;;;14.30;99.90;;;;;;4993863;28;20046;-82
2021/06/15 05:25:19;;;;;;;3.85;2.72;;;14.40;99.90;;;;;;5029769;28;20044;-83
2021/06/15 05:27:49;;;;;;;3.70;3.22;;;14.50;99.90;;;;;;5051887;28;20454;-79
2021/06/15 05:30:17;;;;;;;3.47;3.17;;;14.80;99.90;;;;;;5051266;28;20048;-79
2021/06/15 05:32:45;;;;;;;4.13;3.20;;;15.10;99.90;;;;;;5017856;28;20037;-80
2021/06/15 05:35:13;;;;;;;8.38;3.47;;;15.30;99.90;;;;;;5049861;28;20072;-79
2021/06/15 05:37:42;;;;;;;7.30;2.75;;;15.50;99.90;;;;;;5017725;28;20065;-79
2021/06/15 05:40:12;;;;;;;4.88;3.28;;;15.70;99.90;;;;;;5031367;28;20083;-79
2021/06/15 05:42:40;;;;;;;3.17;2.70;;;15.80;99.90;;;;;;4997542;28;20048;-80
2021/06/15 05:45:09;;;;;;;3.88;2.67;;;15.90;99.90;;;;;;5013207;28;20046;-80
2021/06/15 05:47:44;;;;;;;3.30;2.38;;;16.00;99.90;;;;;;5012249;28;20045;-83
2021/06/15 05:50:26;;;;;;;8.00;3.88;;;16.00;99.90;;;;;;5010731;28;20040;-83
2021/06/15 05:53:07;;;;;;;4.75;2.83;;;15.90;99.90;;;;;;5005079;28;20049;-83
2021/06/15 05:55:44;;;;;;;4.88;3.67;;;16.00;99.90;;;;;;5008189;28;20053;-83
2021/06/15 05:58:21;;;;;;;4.45;3.58;;;16.20;99.90;;;;;;4988382;28;20052;-83
2021/06/15 06:00:57;;;;;;;7.95;4.45;;;16.20;99.90;;;;;;5009571;28;20052;-83
2021/06/15 06:03:36;;;;;;;5.07;3.17;;;16.20;99.90;;;;;;5011657;28;20049;-83
2021/06/15 06:09:03;;;;;;;5.10;4.07;;;16.30;99.90;;;;;;5010223;28;20049;-84
2021/06/15 06:11:33;;;;;;;3.95;3.55;;;16.30;99.90;;;;;;5006393;28;20053;-85
2021/06/15 06:14:29;;;;;;;;;;;16.30;99.90;;;;;;4998863;28;20050;-85
2021/06/15 06:17:12;;;;;;;6.53;3.17;;;16.50;99.90;;;;;;5008671;28;19925;-86
2021/06/15 06:20:39;;;;;;;9.55;5.05;;;16.80;99.90;;;;;;5009299;28;20037;-86
2021/06/15 06:23:28;;;;;;;3.25;2.88;;;16.90;99.90;;;;;;4994729;28;20057;-86
2021/06/15 06:25:59;;;;;;;5.22;3.70;;;17.00;99.90;;;;;;4987598;28;20038;-86
2021/06/15 06:29:14;;;;;;;3.85;3.33;;;17.20;99.90;;;;;;4984801;28;20491;-86
2021/06/15 06:32:04;;;;;;;7.32;3.75;;;17.20;95.80;;;;;;4986062;28;20054;-86
2021/06/15 06:35:03;;;;;;;3.58;3.28;;;17.10;96.80;;;;;;5012639;28;20057;-86
2021/06/15 06:37:58;;;;;;;6.00;2.88;;;17.50;98.50;;;;;;4993095;28;20392;-85
2021/06/15 06:40:59;;;;;;;7.03;3.28;;;17.60;99.90;;;;;;4939545;28;20062;-87
2021/06/15 06:48:07;;;;;;;5.60;2.92;;;18.30;98.70;;;;;;4949255;29;20059;-86
2021/06/15 06:51:08;;;;;;;3.70;2.80;;;18.50;97.50;;;;;;4947328;28;20081;-85
2021/06/15 06:53:46;;;;;;;7.72;4.13;;;18.50;97.00;;;;;;4968701;28;20546;-87
2021/06/15 06:56:46;;;;;;;11.10;3.42;;;18.70;98.90;;;;;;4952889;28;20073;-86
2021/06/15 06:59:21;;;;;;;4.22;3.83;;;18.70;95.10;;;;;;4968143;28;20183;-86
2021/06/15 07:02:11;;;;;;;3.65;3.10;;;18.50;98.20;;;;;;4929548;28;20906;-87
2021/06/15 07:04:55;;;;;;;7.68;3.40;;;18.60;97.60;;;;;;5018518;28;20057;-86
2021/06/15 07:08:18;;;;;;;8.75;3.50;;;18.80;98.30;;;;;;5029604;28;20060;-87
2021/06/15 07:10:46;;;;;;;5.45;3.92;;;19.20;96.40;;;;;;5028454;28;20049;-85
2021/06/15 07:16:20;;;;;;;5.55;3.10;;;21.00;96.00;;;;;;5012151;28;20073;-85
2021/06/15 07:19:15;;;;;;;3.38;3.08;;;23.50;91.90;;;;;;5031153;28;20049;-85
2021/06/15 07:22:02;;;;;;;4.72;3.22;;;25.20;83.50;;;;;;5015634;28;20537;-85
2021/06/15 07:24:46;;;;;;;3.95;3.13;;;26.30;79.90;;;;;;5020535;28;20053;-84
2021/06/15 07:30:58;;;;;;;4.00;3.28;;;26.30;72.00;;;;;;5010575;28;20658;-85
2021/06/15 07:33:28;;;;;;;3.13;2.50;;;25.60;74.70;;;;;;5013879;28;20054;-86
2021/06/15 07:35:56;;;;;;;5.70;4.22;;;24.40;78.30;;;;;;5011011;28;20058;-86
2021/06/15 07:38:25;;;;;;;3.42;2.67;;;25.50;75.70;;;;;;4970127;28;20045;-86
2021/06/15 07:41:05;;;;;;;6.03;3.25;;;27.60;70.20;;;;;;5009910;28;20415;-86
2021/06/15 07:44:14;;;;;;;3.53;2.58;;;29.10;66.90;;;;;;4992117;28;20065;-86
2021/06/15 07:47:16;;;;;;;4.38;3.17;;;28.40;66.90;;;;;;4931976;29;20059;-85
2021/06/15 07:50:34;;;;;;;4.22;2.60;;;26.70;76.20;;;;;;4900038;29;20052;-86
2021/06/15 07:53:18;;;;;;;6.15;3.08;;;25.50;75.90;;;;;;4913425;29;20060;-86
2021/06/15 07:55:52;;;;;;;3.25;2.45;;;24.20;76.90;;;;;;4913595;29;20157;-84
2021/06/15 07:58:20;;;;;;;7.88;3.58;;;24.10;74.00;;;;;;4932701;29;20378;-86
2021/06/15 08:00:58;;;;;;;3.00;2.80;;;23.80;81.20;;;;;;4951821;28;20055;-84
2021/06/15 08:03:27;;;;;;;5.45;2.90;;;23.20;77.10;;;;;;4953000;29;20062;-85
2021/06/15 08:05:58;;;;;;;;;;;23.10;79.30;;;;;;4954328;28;20055;-85
2021/06/15 08:08:29;;;;;;;4.70;2.72;;;22.80;83.00;;;;;;4952046;28;19933;-84
2021/06/15 08:10:57;;;;;;;;;;;22.80;82.30;;;;;;4953366;28;20048;-85
2021/06/15 08:13:26;;;;;;;5.32;3.20;;;22.60;87.00;;;;;;4954101;28;19922;-85
2021/06/15 08:15:58;;;;;;;6.05;2.70;;;22.40;83.00;;;;;;4951612;28;20063;-85
2021/06/15 08:18:27;;;;;;;2.50;2.30;;;22.60;79.20;;;;;;4951855;28;20057;-86
2021/06/15 08:20:56;;;;;;;4.15;2.70;;;22.70;83.20;;;;;;4921977;28;20047;-86
2021/06/15 08:23:26;;;;;;;5.28;3.30;;;22.60;84.00;;;;;;5010605;28;20516;-84
2021/06/15 08:25:57;;;;;;;6.20;3.42;;;22.70;85.60;;;;;;5013942;28;20049;-86
2021/06/15 08:28:29;;;;;;;3.13;2.70;;;22.50;83.50;;;;;;5031733;28;20045;-85
2021/06/15 08:31:02;;;;;;;3.83;3.33;;;22.40;87.30;;;;;;4997758;28;20482;-86
2021/06/15 08:33:30;;;;;;;2.90;2.47;;;22.40;85.30;;;;;;5029354;28;20041;-85
2021/06/15 08:35:59;;;;;;;3.50;2.83;;;22.20;89.80;;;;;;5031004;28;20754;-84
2021/06/15 08:38:29;;;;;;;2.67;2.35;;;22.40;79.40;;;;;;5037123;28;20065;-84
2021/06/15 08:40:57;;;;;;;3.80;2.53;;;22.50;79.00;;;;;;5011657;28;20438;-85
2021/06/15 08:43:29;;;;;;;4.72;3.28;;;22.60;83.70;;;;;;4995082;28;20118;-84
2021/06/15 08:45:57;;;;;;;3.42;2.03;;;22.80;82.40;;;;;;5011588;28;20050;-86
2021/06/15 08:48:26;;;;;;;3.20;3.00;;;22.80;82.00;;;;;;5012381;28;20065;-84
2021/06/15 08:50:54;;;;;;;12.20;4.53;;;22.60;83.30;;;;;;5011387;28;20061;-84
2021/06/15 08:53:23;;;;;;;2.85;2.65;;;22.60;84.40;;;;;;5012910;28;20046;-85
2021/06/15 08:55:59;;;;;;;3.67;2.42;;;22.60;85.30;;;;;;5031810;28;20061;-82
2021/06/15 08:58:45;;;;;;;3.22;2.42;;;22.50;85.40;;;;;;5031316;28;20514;-82
2021/06/15 09:01:16;;;;;;;2.92;2.63;;;22.60;81.40;;;;;;5031937;28;20049;-85
2021/06/15 09:03:51;;;;;;;;;;;22.80;85.10;;;;;;5032269;28;20402;-85
2021/06/15 09:06:24;;;;;;;3.78;2.15;;;23.00;81.30;;;;;;5029717;28;20365;-84
2021/06/15 09:08:59;;;;;;;2.83;1.95;;;23.10;74.80;;;;;;5033614;28;20528;-85
2021/06/15 09:11:47;;;;;;;2.17;1.98;;;23.10;79.30;;;;;;5031415;28;20486;-85
2021/06/15 09:14:18;;;;;;;21.98;3.65;;;23.10;73.90;;;;;;5031042;28;20399;-84
2021/06/15 09:16:48;;;;;;;3.33;1.70;;;23.10;72.20;;;;;;5030824;28;20761;-84
2021/06/15 09:19:23;;;;;;;10.30;2.47;;;23.10;71.10;;;;;;5006947;28;20050;-84
2021/06/15 09:21:53;;;;;;;3.80;1.88;;;23.10;72.80;;;;;;5011054;28;20034;-83
2021/06/15 09:24:24;;;;;;;3.33;3.10;;;23.10;72.30;;;;;;5019565;28;20058;-84
2021/06/15 09:27:11;;;;;;;4.65;3.22;;;22.90;72.30;;;;;;5031077;28;20054;-83
2021/06/15 09:29:46;;;;;;;3.28;1.75;;;22.80;77.20;;;;;;5031005;28;20402;-85
2021/06/15 09:32:26;;;;;;;1.75;1.65;;;23.10;74.10;;;;;;5031643;28;20045;-85
2021/06/15 09:35:04;;;;;;;8.55;1.95;;;23.20;70.10;;;;;;5011855;28;20052;-85
2021/06/15 09:37:40;;;;;;;2.20;1.80;;;23.20;70.30;;;;;;5025706;28;20034;-84
2021/06/15 09:40:09;;;;;;;1.85;1.75;;;23.10;65.80;;;;;;5029912;28;20715;-84
2021/06/15 09:43:11;;;;;;;1.80;1.48;;;23.10;72.40;;;;;;5013501;28;20494;-82
2021/06/15 09:45:46;;;;;;;2.17;1.92;;;23.20;63.20;;;;;;5030520;28;20510;-84
2021/06/15 09:48:31;;;;;;;1.83;1.73;;;23.20;66.40;;;;;;5013869;28;20062;-85
2021/06/15 09:51:05;;;;;;;2.22;2.03;;;23.30;68.70;;;;;;5005288;28;20049;-84
2021/06/15 09:53:40;;;;;;;4.57;1.70;;;23.30;65.70;;;;;;5032373;28;20033;-85
2021/06/15 09:56:15;;;;;;;3.42;2.15;;;23.20;61.60;;;;;;5051163;28;20060;-84
2021/06/15 09:58:56;;;;;;;2.50;2.30;;;23.20;68.10;;;;;;5032984;28;20060;-84
2021/06/15 10:01:40;;;;;;;3.88;2.58;;;23.30;70.50;;;;;;5049338;28;20037;-84
2021/06/15 10:04:21;;;;;;;2.00;1.75;;;23.50;67.80;;;;;;5016957;28;20056;-85
2021/06/15 10:06:54;;;;;;;3.87;2.40;;;23.50;70.40;;;;;;5031077;28;20044;-86
2021/06/15 10:09:32;;;;;;;3.92;2.30;;;23.60;69.90;;;;;;5049841;28;20402;-85
2021/06/15 10:12:06;;;;;;;2.15;1.90;;;23.50;69.40;;;;;;5050706;28;20053;-83
2021/06/15 10:14:37;;;;;;;7.13;1.52;;;23.60;61.80;;;;;;5031697;28;20049;-84
2021/06/15 10:17:11;;;;;;;1.73;1.60;;;23.60;64.20;;;;;;5049527;28;20115;-84
2021/06/15 10:19:41;;;;;;;3.22;1.42;;;23.70;62.50;;;;;;5050190;28;20056;-84
2021/06/15 10:22:11;;;;;;;2.10;1.90;;;23.70;66.40;;;;;;5031644;28;20056;-82
2021/06/15 10:24:39;;;;;;;3.42;2.08;;;23.80;66.60;;;;;;5020819;28;20706;-81
2021/06/15 10:27:10;;;;;;;2.60;1.95;;;23.80;63.50;;;;;;5030697;28;20053;-80
2021/06/15 10:29:48;;;;;;;1.85;1.50;;;23.80;63.00;;;;;;5029351;28;20045;-85
2021/06/15 10:32:20;;;;;;;3.10;1.67;;;23.80;66.20;;;;;;5029995;28;20048;-84
2021/06/15 10:34:53;;;;;;;2.13;1.92;;;23.80;62.00;;;;;;5029006;28;20434;-84
2021/06/15 10:37:37;;;;;;;6.10;2.50;;;23.90;64.50;;;;;;5017928;28;20054;-83
2021/06/15 10:40:12;;;;;;;4.88;2.65;;;23.80;62.80;;;;;;4994795;28;20058;-80
2021/06/15 10:42:42;;;;;;;2.88;1.63;;;23.80;71.10;;;;;;5006475;28;20042;-81
2021/06/15 10:45:13;;;;;;;2.47;1.52;;;23.90;66.30;;;;;;5009691;28;20046;-78
2021/06/15 10:48:06;;;;;;;3.05;1.90;;;24.00;69.20;;;;;;5010494;28;20050;-79
2021/06/15 10:50:55;;;;;;;3.60;1.83;;;24.10;65.90;;;;;;5009291;28;20038;-77
2021/06/15 10:53:53;;;;;;;5.03;2.10;;;24.00;59.80;;;;;;5010346;28;20058;-79
2021/06/15 10:56:30;;;;;;;4.93;2.22;;;23.90;60.80;;;;;;4990714;28;20042;-79
2021/06/15 10:59:09;;;;;;;4.38;2.45;;;23.90;63.30;;;;;;5010274;28;20057;-80
2021/06/15 11:01:42;;;;;;;1.48;1.20;;;24.10;60.60;;;;;;5009552;28;20060;-80
2021/06/15 11:04:14;;;;;;;3.63;2.33;;;24.10;61.00;;;;;;5010858;28;20062;-80
2021/06/15 11:06:49;;;;;;;2.45;2.10;;;24.10;63.30;;;;;;5009383;28;20492;-80
2021/06/15 11:09:21;;;;;;;2.88;2.55;;;24.20;65.30;;;;;;5010326;28;20061;-80
2021/06/15 11:12:17;;;;;;;4.30;2.08;;;24.30;63.10;;;;;;5009739;28;20062;-80
2021/06/15 11:15:10;;;;;;;;;;;24.20;65.50;;;;;;5009138;28;20110;-78
2021/06/15 11:17:56;;;;;;;3.33;1.92;;;24.20;60.00;;;;;;5008915;28;19928;-78
2021/06/15 11:20:33;;;;;;;5.20;2.17;;;24.20;64.80;;;;;;4975694;28;20042;-78
2021/06/15 11:23:16;;;;;;;3.05;2.38;;;24.40;65.70;;;;;;4992526;28;20062;-78
2021/06/15 11:25:50;;;;;;;3.03;2.10;;;24.30;70.70;;;;;;4998211;28;20052;-82
2021/06/15 11:28:37;;;;;;;1.60;1.50;;;24.30;67.00;;;;;;5012319;28;20427;-82
2021/06/15 11:31:17;;;;;;;4.35;1.85;;;24.40;65.40;;;;;;4995713;28;20376;-81
2021/06/15 11:34:14;;;;;;;1.50;1.40;;;24.40;69.60;;;;;;5029138;28;20045;-78
2021/06/15 11:36:55;;;;;;;7.28;2.42;;;24.40;62.80;;;;;;5038751;28;20053;-78
2021/06/15 11:39:29;;;;;;;3.88;2.33;;;24.50;60.80;;;;;;5029674;28;20050;-80
2021/06/15 11:42:07;;;;;;;8.82;2.38;;;24.50;63.10;;;;;;5011646;28;20034;-79
2021/06/15 11:45:05;;;;;;;2.15;1.90;;;24.50;62.60;;;;;;5012182;28;20057;-80
2021/06/15 11:47:36;;;;;;;4.35;1.83;;;24.60;65.50;;;;;;5030140;28;20482;-79
2021/06/15 11:50:25;;;;;;;3.85;1.33;;;24.60;63.10;;;;;;5013552;28;20071;-79
2021/06/15 11:53:03;;;;;;;2.75;1.95;;;24.70;61.70;;;;;;5009733;28;20061;-79
2021/06/15 11:55:34;;;;;;;2.95;1.45;;;24.70;62.50;;;;;;5028534;28;20507;-79
2021/06/15 11:58:15;;;;;;;2.90;2.60;;;24.70;59.90;;;;;;5029214;28;20048;-78
2021/06/15 12:00:44;;;;;;;;;;;24.70;67.80;;;;;;5028869;28;20037;-80
2021/06/15 12:03:22;;;;;;;3.72;2.78;;;24.80;61.00;;;;;;5032182;28;20290;-82
2021/06/15 12:05:56;;;;;;;2.25;2.05;;;24.70;66.60;;;;;;5014664;28;20041;-81
2021/06/15 12:08:35;;;;;;;6.30;2.95;;;24.70;62.80;;;;;;5032637;28;20053;-81
2021/06/15 12:11:10;;;;;;;2.20;2.05;;;24.80;63.30;;;;;;5015786;28;20053;-80
2021/06/15 12:13:39;;;;;;;1.98;1.67;;;24.80;62.10;;;;;;5014941;28;20045;-81
2021/06/15 12:16:11;;;;;;;3.70;2.53;;;24.70;67.20;;;;;;5015396;28;20411;-81
2021/06/15 12:18:44;;;;;;;1.80;1.48;;;24.80;66.00;;;;;;5032873;28;20108;-78
2021/06/15 12:21:26;;;;;;;2.25;2.05;;;24.90;63.70;;;;;;5032377;28;20042;-80
2021/06/15 12:23:55;;;;;;;2.47;1.92;;;24.90;68.40;;;;;;5032399;28;20066;-80
2021/06/15 12:26:43;;;;;;;5.40;2.88;;;24.90;66.30;;;;;;5032869;28;20068;-80
2021/06/15 12:29:16;;;;;;;3.90;2.45;;;25.00;64.70;;;;;;5032011;28;20414;-78
2021/06/15 12:31:48;;;;;;;2.97;2.20;;;25.20;63.40;;;;;;5032736;28;20065;-80
2021/06/15 12:34:18;;;;;;;2.15;1.70;;;25.20;61.80;;;;;;5032015;28;20049;-81
2021/06/15 12:36:52;;;;;;;3.05;2.83;;;25.10;68.20;;;;;;5014448;28;20056;-80
2021/06/15 12:39:24;;;;;;;3.72;2.22;;;25.20;69.90;;;;;;5022915;28;20414;-80
2021/06/15 12:42:01;;;;;;;3.03;2.30;;;25.20;65.60;;;;;;5018570;28;20041;-79
2021/06/15 12:44:36;;;;;;;4.95;2.25;;;25.20;62.70;;;;;;5013794;28;20057;-79
2021/06/15 12:47:07;;;;;;;9.27;2.92;;;25.10;65.20;;;;;;5015134;28;20069;-79
2021/06/15 12:49:49;;;;;;;3.25;2.38;;;25.10;68.60;;;;;;5030939;28;20082;-81
2021/06/15 12:52:17;;;;;;;8.23;2.85;;;25.00;65.00;;;;;;5032435;28;20065;-79
2021/06/15 12:54:47;;;;;;;3.67;2.60;;;25.00;66.60;;;;;;5029215;28;20029;-78
2021/06/15 12:57:22;;;;;;;2.30;1.97;;;25.00;68.90;;;;;;5013390;28;20055;-81
2021/06/15 13:00:03;;;;;;;6.45;1.95;;;25.00;62.10;;;;;;5010093;28;20411;-77
2021/06/15 13:02:43;;;;;;;1.92;1.77;;;25.10;68.40;;;;;;5015338;28;20041;-78
2021/06/15 13:05:25;;;;;;;1.95;1.85;;;25.20;66.60;;;;;;5016611;28;20057;-78
2021/06/15 13:08:02;;;;;;;2.13;1.92;;;25.20;65.60;;;;;;5024434;28;20057;-79
2021/06/15 13:10:31;;;;;;;3.60;2.63;;;25.20;65.50;;;;;;5013150;28;20050;-78
2021/06/15 13:13:04;;;;;;;6.18;2.45;;;25.20;63.70;;;;;;5030760;28;20045;-80
2021/06/15 13:15:33;;;;;;;2.30;2.00;;;25.20;66.90;;;;;;5031322;28;20072;-77
2021/06/15 13:18:09;;;;;;;7.55;2.85;;;25.30;66.30;;;;;;5019196;28;20053;-77
2021/06/15 13:20:39;;;;;;;2.10;1.92;;;25.50;68.50;;;;;;5010015;28;20075;-79
2021/06/15 13:23:17;;;;;;;2.55;1.60;;;25.50;63.30;;;;;;5011845;28;20061;-79
2021/06/15 13:25:46;;;;;;;3.08;2.28;;;25.60;66.80;;;;;;5009864;28;20523;-79
2021/06/15 13:28:19;;;;;;;4.38;1.95;;;25.50;67.50;;;;;;5013465;28;20418;-80
2021/06/15 13:30:50;;;;;;;3.42;2.70;;;25.50;63.80;;;;;;5029220;28;20498;-79
2021/06/15 13:33:25;;;;;;;6.50;3.75;;;25.50;63.60;;;;;;5031518;28;20038;-79
2021/06/15 13:35:59;;;;;;;5.55;2.63;;;25.50;63.20;;;;;;5031110;28;20053;-80
2021/06/15 13:38:31;;;;;;;4.20;2.20;;;25.50;66.00;;;;;;5011560;28;20052;-78
2021/06/15 13:41:00;;;;;;;2.92;1.70;;;25.50;69.50;;;;;;5015654;28;20037;-79
2021/06/15 13:43:30;;;;;;;2.83;2.42;;;25.60;64.30;;;;;;5011956;28;20058;-79
2021/06/15 13:46:06;;;;;;;2.45;2.25;;;25.50;65.10;;;;;;5021614;28;20041;-80
2021/06/15 13:48:43;;;;;;;5.82;1.92;;;25.50;64.20;;;;;;5030831;28;20040;-81
2021/06/15 13:51:16;;;;;;;4.82;2.00;;;25.50;68.00;;;;;;5010914;28;20057;-83